sensor_id;sensor_type;location;lat;lon;timestamp;temperature;humidity
7694;DHT22;3889;48.162;11.510;2022-12-07T00:01:08;3.20;99.90
7694;DHT22;3889;48.162;11.510;2022-12-07T00:03:38;3.00;99.90
7694;DHT22;3889;48.162;11.510;2022-12-07T00:06:07;3.10;99.90
7694;DHT22;3889;48.162;11.510;2022-12-07T00:08:35;3.00;99.90
7694;DHT22;3889;48.162;11.510;2022-12-07T00:11:05;2.90;99.90
7694;DHT22;3889;48.162;11.510;2022-12-07T00:13:34;3.00;99.90
7694;DHT22;3889;48.162;11.510;2022-12-07T00:16:05;3.10;99.90
7694;DHT22;3889;48.162;11.510;2022-12-07T00:18:33;3.00;99.90
7694;DHT22;3889;48.162;11.510;2022-12-07T00:21:01;3.00;99.90
7694;DHT22;3889;48.162;11.510;2022-12-07T00:23:30;3.00;99.90
7694;DHT22;3889;48.162;11.510;2022-12-07T00:26:04;3.10;99.90
7694;DHT22;3889;48.162;11.510;2022-12-07T00:28:34;3.00;99.90
7694;DHT22;3889;48.162;11.510;2022-12-07T00:31:03;3.10;99.90
7694;DHT22;3889;48.162;11.510;2022-12-07T00:33:31;3.10;99.90
7694;DHT22;3889;48.162;11.510;2022-12-07T00:36:00;3.10;99.90
7694;DHT22;3889;48.162;11.510;2022-12-07T00:38:30;3.00;99.90
7694;DHT22;3889;48.162;11.510;2022-12-07T00:40:59;3.00;99.90
7694;DHT22;3889;48.162;11.510;2022-12-07T00:43:27;3.10;99.90
7694;DHT22;3889;48.162;11.510;2022-12-07T00:45:57;3.10;99.90
7694;DHT22;3889;48.162;11.510;2022-12-07T00:48:25;3.00;99.90
7694;DHT22;3889;48.162;11.510;2022-12-07T00:50:53;2.90;99.90
7694;DHT22;3889;48.162;11.510;2022-12-07T00:53:22;2.80;99.90
7694;DHT22;3889;48.162;11.510;2022-12-07T00:55:49;2.80;99.90
7694;DHT22;3889;48.162;11.510;2022-12-07T00:58:19;2.80;99.90
7694;DHT22;3889;48.162;11.510;2022-12-07T01:00:47;2.90;99.90
7694;DHT22;3889;48.162;11.510;2022-12-07T01:03:16;2.90;99.90
7694;DHT22;3889;48.162;11.510;2022-12-07T01:05:52;2.90;99.90
7694;DHT22;3889;48.162;11.510;2022-12-07T01:08:20;2.80;99.90
7694;DHT22;3889;48.162;11.510;2022-12-07T01:10:48;2.90;99.90
7694;DHT22;3889;48.162;11.510;2022-12-07T01:13:16;2.80;99.90
7694;DHT22;3889;48.162;11.510;2022-12-07T01:15:44;2.80;99.90
7694;DHT22;3889;48.162;11.510;2022-12-07T01:18:12;2.80;99.90
7694;DHT22;3889;48.162;11.510;2022-12-07T01:20:41;2.90;99.90
7694;DHT22;3889;48.162;11.510;2022-12-07T01:23:09;2.90;99.90
7694;DHT22;3889;48.162;11.510;2022-12-07T01:25:38;2.90;99.90
7694;DHT22;3889;48.162;11.510;2022-12-07T01:28:06;3.00;99.90
7694;DHT22;3889;48.162;11.510;2022-12-07T01:30:33;2.90;99.90
7694;DHT22;3889;48.162;11.510;2022-12-07T01:33:02;2.90;99.90
7694;DHT22;3889;48.162;11.510;2022-12-07T01:35:29;2.80;99.90
7694;DHT22;3889;48.162;11.510;2022-12-07T01:38:02;2.80;99.90
7694;DHT22;3889;48.162;11.510;2022-12-07T01:40:30;2.80;99.90
7694;DHT22;3889;48.162;11.510;2022-12-07T01:42:58;2.90;99.90
7694;DHT22;3889;48.162;11.510;2022-12-07T01:45:44;2.70;99.90
7694;DHT22;3889;48.162;11.510;2022-12-07T01:48:15;2.80;99.90
7694;DHT22;3889;48.162;11.510;2022-12-07T01:50:46;2.80;99.90
7694;DHT22;3889;48.162;11.510;2022-12-07T01:53:17;2.90;99.90
7694;DHT22;3889;48.162;11.510;2022-12-07T01:55:48;2.90;99.90
7694;DHT22;3889;48.162;11.510;2022-12-07T01:58:17;2.90;99.90
7694;DHT22;3889;48.162;11.510;2022-12-07T02:00:45;2.90;99.90
7694;DHT22;3889;48.162;11.510;2022-12-07T02:03:16;2.90;99.90
7694;DHT22;3889;48.162;11.510;2022-12-07T02:05:46;2.90;99.90
7694;DHT22;3889;48.162;11.510;2022-12-07T02:08:16;3.00;99.90
7694;DHT22;3889;48.162;11.510;2022-12-07T02:10:45;3.00;99.90
7694;DHT22;3889;48.162;11.510;2022-12-07T02:13:16;3.00;99.90
7694;DHT22;3889;48.162;11.510;2022-12-07T02:15:56;3.00;99.90
7694;DHT22;3889;48.162;11.510;2022-12-07T02:18:35;2.90;99.90
7694;DHT22;3889;48.162;11.510;2022-12-07T02:21:09;2.90;99.90
7694;DHT22;3889;48.162;11.510;2022-12-07T02:23:58;3.00;99.90
7694;DHT22;3889;48.162;11.510;2022-12-07T02:26:56;3.00;99.90
7694;DHT22;3889;48.162;11.510;2022-12-07T02:29:33;2.90;99.90
7694;DHT22;3889;48.162;11.510;2022-12-07T02:32:07;2.90;99.90
7694;DHT22;3889;48.162;11.510;2022-12-07T02:34:42;2.70;99.90
7694;DHT22;3889;48.162;11.510;2022-12-07T02:37:20;2.70;99.90
7694;DHT22;3889;48.162;11.510;2022-12-07T02:39:55;2.60;99.90
7694;DHT22;3889;48.162;11.510;2022-12-07T02:42:30;2.80;99.90
7694;DHT22;3889;48.162;11.510;2022-12-07T02:45:01;2.80;99.90
7694;DHT22;3889;48.162;11.510;2022-12-07T02:47:30;2.90;99.90
7694;DHT22;3889;48.162;11.510;2022-12-07T02:49:59;3.00;99.90
7694;DHT22;3889;48.162;11.510;2022-12-07T02:52:28;3.00;99.90
7694;DHT22;3889;48.162;11.510;2022-12-07T02:54:56;2.90;99.90
7694;DHT22;3889;48.162;11.510;2022-12-07T02:57:33;2.90;99.90
7694;DHT22;3889;48.162;11.510;2022-12-07T03:00:07;3.00;99.90
7694;DHT22;3889;48.162;11.510;2022-12-07T03:02:41;3.00;99.90
7694;DHT22;3889;48.162;11.510;2022-12-07T03:05:27;2.90;99.90
7694;DHT22;3889;48.162;11.510;2022-12-07T03:08:02;2.90;99.90
7694;DHT22;3889;48.162;11.510;2022-12-07T03:10:42;3.00;99.90
7694;DHT22;3889;48.162;11.510;2022-12-07T03:13:19;2.90;99.90
7694;DHT22;3889;48.162;11.510;2022-12-07T03:15:55;2.90;99.90
7694;DHT22;3889;48.162;11.510;2022-12-07T03:18:29;2.90;99.90
7694;DHT22;3889;48.162;11.510;2022-12-07T03:21:02;2.90;99.90
7694;DHT22;3889;48.162;11.510;2022-12-07T03:23:34;2.90;99.90
7694;DHT22;3889;48.162;11.510;2022-12-07T03:26:04;3.00;99.90
7694;DHT22;3889;48.162;11.510;2022-12-07T03:28:36;2.90;99.90
7694;DHT22;3889;48.162;11.510;2022-12-07T03:31:11;2.90;99.90
7694;DHT22;3889;48.162;11.510;2022-12-07T03:33:46;2.80;99.90
7694;DHT22;3889;48.162;11.510;2022-12-07T03:36:21;2.70;99.90
7694;DHT22;3889;48.162;11.510;2022-12-07T03:38:54;2.80;99.90
7694;DHT22;3889;48.162;11.510;2022-12-07T03:41:26;2.90;99.90
7694;DHT22;3889;48.162;11.510;2022-12-07T03:43:56;2.80;99.90
7694;DHT22;3889;48.162;11.510;2022-12-07T03:46:32;2.90;99.90
7694;DHT22;3889;48.162;11.510;2022-12-07T03:49:06;2.90;99.90
7694;DHT22;3889;48.162;11.510;2022-12-07T03:51:40;2.80;99.90
7694;DHT22;3889;48.162;11.510;2022-12-07T03:54:15;2.90;99.90
7694;DHT22;3889;48.162;11.510;2022-12-07T03:56:44;2.90;99.90
7694;DHT22;3889;48.162;11.510;2022-12-07T03:59:14;2.80;99.90
7694;DHT22;3889;48.162;11.510;2022-12-07T04:01:47;2.70;99.90
7694;DHT22;3889;48.162;11.510;2022-12-07T04:04:18;2.80;99.90
7694;DHT22;3889;48.162;11.510;2022-12-07T04:06:46;2.80;99.90
7694;DHT22;3889;48.162;11.510;2022-12-07T04:09:14;2.90;99.90
7694;DHT22;3889;48.162;11.510;2022-12-07T04:11:42;2.90;99.90
7694;DHT22;3889;48.162;11.510;2022-12-07T04:14:10;2.80;99.90
7694;DHT22;3889;48.162;11.510;2022-12-07T04:16:49;2.80;99.90
7694;DHT22;3889;48.162;11.510;2022-12-07T04:19:20;3.00;99.90
7694;DHT22;3889;48.162;11.510;2022-12-07T04:21:48;2.90;99.90
7694;DHT22;3889;48.162;11.510;2022-12-07T04:24:16;2.80;99.90
7694;DHT22;3889;48.162;11.510;2022-12-07T04:26:45;2.90;99.90
7694;DHT22;3889;48.162;11.510;2022-12-07T04:29:14;3.00;99.90
7694;DHT22;3889;48.162;11.510;2022-12-07T04:31:43;2.90;99.90
7694;DHT22;3889;48.162;11.510;2022-12-07T04:34:13;2.90;99.90
7694;DHT22;3889;48.162;11.510;2022-12-07T04:36:42;2.90;99.90
7694;DHT22;3889;48.162;11.510;2022-12-07T04:39:18;2.90;99.90
7694;DHT22;3889;48.162;11.510;2022-12-07T04:41:47;3.00;99.90
7694;DHT22;3889;48.162;11.510;2022-12-07T04:44:15;3.00;99.90
7694;DHT22;3889;48.162;11.510;2022-12-07T04:46:44;3.00;99.90
7694;DHT22;3889;48.162;11.510;2022-12-07T04:49:14;3.00;99.90
7694;DHT22;3889;48.162;11.510;2022-12-07T04:51:42;3.00;99.90
7694;DHT22;3889;48.162;11.510;2022-12-07T04:54:10;3.00;99.90
7694;DHT22;3889;48.162;11.510;2022-12-07T04:56:38;2.90;99.90
7694;DHT22;3889;48.162;11.510;2022-12-07T04:59:07;2.90;99.90
7694;DHT22;3889;48.162;11.510;2022-12-07T05:01:35;2.90;99.90
7694;DHT22;3889;48.162;11.510;2022-12-07T05:04:03;2.90;99.90
7694;DHT22;3889;48.162;11.510;2022-12-07T05:06:32;2.90;99.90
7694;DHT22;3889;48.162;11.510;2022-12-07T05:09:01;2.90;99.90
7694;DHT22;3889;48.162;11.510;2022-12-07T05:11:29;2.90;99.90
7694;DHT22;3889;48.162;11.510;2022-12-07T05:14:09;2.80;99.90
7694;DHT22;3889;48.162;11.510;2022-12-07T05:16:38;2.70;99.90
7694;DHT22;3889;48.162;11.510;2022-12-07T05:19:06;2.80;99.90
7694;DHT22;3889;48.162;11.510;2022-12-07T05:21:36;2.80;99.90
7694;DHT22;3889;48.162;11.510;2022-12-07T05:24:05;2.70;99.90
7694;DHT22;3889;48.162;11.510;2022-12-07T05:26:33;2.80;99.90
7694;DHT22;3889;48.162;11.510;2022-12-07T05:29:01;2.80;99.90
7694;DHT22;3889;48.162;11.510;2022-12-07T05:31:29;2.70;99.90
7694;DHT22;3889;48.162;11.510;2022-12-07T05:33:56;2.80;99.90
7694;DHT22;3889;48.162;11.510;2022-12-07T05:36:24;2.70;99.90
7694;DHT22;3889;48.162;11.510;2022-12-07T05:38:57;2.70;99.90
7694;DHT22;3889;48.162;11.510;2022-12-07T05:41:24;2.70;99.90
7694;DHT22;3889;48.162;11.510;2022-12-07T05:44:10;2.60;99.90
7694;DHT22;3889;48.162;11.510;2022-12-07T05:46:38;2.60;99.90
7694;DHT22;3889;48.162;11.510;2022-12-07T05:49:06;2.60;99.90
7694;DHT22;3889;48.162;11.510;2022-12-07T05:51:34;2.60;99.90
7694;DHT22;3889;48.162;11.510;2022-12-07T05:54:03;2.60;99.90
7694;DHT22;3889;48.162;11.510;2022-12-07T05:56:31;2.70;99.90
7694;DHT22;3889;48.162;11.510;2022-12-07T05:58:59;2.70;99.90
7694;DHT22;3889;48.162;11.510;2022-12-07T06:01:44;2.70;99.90
7694;DHT22;3889;48.162;11.510;2022-12-07T06:04:12;2.70;99.90
7694;DHT22;3889;48.162;11.510;2022-12-07T06:06:40;2.80;99.90
7694;DHT22;3889;48.162;11.510;2022-12-07T06:09:09;2.70;99.90
7694;DHT22;3889;48.162;11.510;2022-12-07T06:11:37;2.70;99.90
7694;DHT22;3889;48.162;11.510;2022-12-07T06:14:23;2.70;99.90
7694;DHT22;3889;48.162;11.510;2022-12-07T06:16:51;2.70;99.90
7694;DHT22;3889;48.162;11.510;2022-12-07T06:19:19;2.70;99.90
7694;DHT22;3889;48.162;11.510;2022-12-07T06:21:47;2.70;99.90
7694;DHT22;3889;48.162;11.510;2022-12-07T06:24:16;2.70;99.90
7694;DHT22;3889;48.162;11.510;2022-12-07T06:26:45;2.60;99.90
7694;DHT22;3889;48.162;11.510;2022-12-07T06:29:13;2.60;99.90
7694;DHT22;3889;48.162;11.510;2022-12-07T06:31:41;2.70;99.90
7694;DHT22;3889;48.162;11.510;2022-12-07T06:34:11;2.60;99.90
7694;DHT22;3889;48.162;11.510;2022-12-07T06:36:40;2.70;99.90
7694;DHT22;3889;48.162;11.510;2022-12-07T06:39:09;2.70;99.90
7694;DHT22;3889;48.162;11.510;2022-12-07T06:41:38;2.70;99.90
7694;DHT22;3889;48.162;11.510;2022-12-07T06:44:06;2.60;99.90
7694;DHT22;3889;48.162;11.510;2022-12-07T06:46:35;2.60;99.90
7694;DHT22;3889;48.162;11.510;2022-12-07T06:49:03;2.50;99.90
7694;DHT22;3889;48.162;11.510;2022-12-07T06:51:31;2.60;99.90
7694;DHT22;3889;48.162;11.510;2022-12-07T06:53:59;2.60;99.90
7694;DHT22;3889;48.162;11.510;2022-12-07T06:56:26;2.60;99.90
7694;DHT22;3889;48.162;11.510;2022-12-07T06:58:56;2.70;99.90
7694;DHT22;3889;48.162;11.510;2022-12-07T07:01:24;2.70;99.90
7694;DHT22;3889;48.162;11.510;2022-12-07T07:03:52;2.70;99.90
7694;DHT22;3889;48.162;11.510;2022-12-07T07:06:20;2.60;99.90
7694;DHT22;3889;48.162;11.510;2022-12-07T07:08:48;2.70;99.90
7694;DHT22;3889;48.162;11.510;2022-12-07T07:11:16;2.70;99.90
7694;DHT22;3889;48.162;11.510;2022-12-07T07:13:44;2.70;99.90
7694;DHT22;3889;48.162;11.510;2022-12-07T07:16:13;2.60;99.90
7694;DHT22;3889;48.162;11.510;2022-12-07T07:18:41;2.60;99.90
7694;DHT22;3889;48.162;11.510;2022-12-07T07:21:09;2.60;99.90
7694;DHT22;3889;48.162;11.510;2022-12-07T07:23:37;2.70;99.90
7694;DHT22;3889;48.162;11.510;2022-12-07T07:26:05;2.80;99.90
7694;DHT22;3889;48.162;11.510;2022-12-07T07:28:33;2.80;99.90
7694;DHT22;3889;48.162;11.510;2022-12-07T07:31:01;2.70;99.90
7694;DHT22;3889;48.162;11.510;2022-12-07T07:33:30;2.70;99.90
7694;DHT22;3889;48.162;11.510;2022-12-07T07:35:58;2.70;99.90
7694;DHT22;3889;48.162;11.510;2022-12-07T07:38:25;2.60;99.90
7694;DHT22;3889;48.162;11.510;2022-12-07T07:40:53;2.60;99.90
7694;DHT22;3889;48.162;11.510;2022-12-07T07:43:21;2.70;99.90
7694;DHT22;3889;48.162;11.510;2022-12-07T07:45:49;2.80;99.90
7694;DHT22;3889;48.162;11.510;2022-12-07T07:48:17;2.70;99.90
7694;DHT22;3889;48.162;11.510;2022-12-07T07:50:46;2.80;99.90
7694;DHT22;3889;48.162;11.510;2022-12-07T07:53:14;2.90;99.90
7694;DHT22;3889;48.162;11.510;2022-12-07T07:55:50;2.90;99.90
7694;DHT22;3889;48.162;11.510;2022-12-07T07:58:18;3.00;99.90
7694;DHT22;3889;48.162;11.510;2022-12-07T08:00:46;3.00;99.90
7694;DHT22;3889;48.162;11.510;2022-12-07T08:03:13;3.10;99.90
7694;DHT22;3889;48.162;11.510;2022-12-07T08:05:42;3.10;99.90
7694;DHT22;3889;48.162;11.510;2022-12-07T08:08:11;3.10;99.90
7694;DHT22;3889;48.162;11.510;2022-12-07T08:10:39;3.20;99.90
7694;DHT22;3889;48.162;11.510;2022-12-07T08:13:06;3.20;99.90
7694;DHT22;3889;48.162;11.510;2022-12-07T08:15:42;3.30;99.90
7694;DHT22;3889;48.162;11.510;2022-12-07T08:18:11;3.30;99.90
7694;DHT22;3889;48.162;11.510;2022-12-07T08:20:40;3.20;99.90
7694;DHT22;3889;48.162;11.510;2022-12-07T08:23:08;3.20;99.90
7694;DHT22;3889;48.162;11.510;2022-12-07T08:25:38;3.20;99.90
7694;DHT22;3889;48.162;11.510;2022-12-07T08:28:07;3.20;99.90
7694;DHT22;3889;48.162;11.510;2022-12-07T08:30:34;3.20;99.90
7694;DHT22;3889;48.162;11.510;2022-12-07T08:33:02;3.30;99.90
7694;DHT22;3889;48.162;11.510;2022-12-07T08:35:32;3.40;99.90
7694;DHT22;3889;48.162;11.510;2022-12-07T08:38:00;3.40;99.90
7694;DHT22;3889;48.162;11.510;2022-12-07T08:40:29;3.40;99.90
7694;DHT22;3889;48.162;11.510;2022-12-07T08:42:59;3.40;99.90
7694;DHT22;3889;48.162;11.510;2022-12-07T08:45:26;3.40;99.90
7694;DHT22;3889;48.162;11.510;2022-12-07T08:48:02;3.50;99.90
7694;DHT22;3889;48.162;11.510;2022-12-07T08:50:31;3.50;99.90
7694;DHT22;3889;48.162;11.510;2022-12-07T08:53:00;3.50;99.90
7694;DHT22;3889;48.162;11.510;2022-12-07T08:55:28;3.60;99.90
7694;DHT22;3889;48.162;11.510;2022-12-07T08:57:58;3.60;99.90
7694;DHT22;3889;48.162;11.510;2022-12-07T09:00:27;3.60;99.90
7694;DHT22;3889;48.162;11.510;2022-12-07T09:02:54;3.70;99.90
7694;DHT22;3889;48.162;11.510;2022-12-07T09:05:22;3.60;99.90
7694;DHT22;3889;48.162;11.510;2022-12-07T09:07:54;3.70;99.90
7694;DHT22;3889;48.162;11.510;2022-12-07T09:10:22;3.70;99.90
7694;DHT22;3889;48.162;11.510;2022-12-07T09:12:50;3.80;99.90
7694;DHT22;3889;48.162;11.510;2022-12-07T09:15:20;3.80;99.90
7694;DHT22;3889;48.162;11.510;2022-12-07T09:17:47;3.90;99.90
7694;DHT22;3889;48.162;11.510;2022-12-07T09:20:15;3.90;99.90
7694;DHT22;3889;48.162;11.510;2022-12-07T09:22:43;4.00;99.90
7694;DHT22;3889;48.162;11.510;2022-12-07T09:25:11;4.00;99.90
7694;DHT22;3889;48.162;11.510;2022-12-07T09:27:39;4.00;99.90
7694;DHT22;3889;48.162;11.510;2022-12-07T09:30:07;4.00;99.90
7694;DHT22;3889;48.162;11.510;2022-12-07T09:32:37;4.10;99.90
7694;DHT22;3889;48.162;11.510;2022-12-07T09:35:05;4.00;99.90
7694;DHT22;3889;48.162;11.510;2022-12-07T09:37:33;4.10;99.90
7694;DHT22;3889;48.162;11.510;2022-12-07T09:40:03;4.20;99.90
7694;DHT22;3889;48.162;11.510;2022-12-07T09:42:36;4.10;99.90
7694;DHT22;3889;48.162;11.510;2022-12-07T09:45:10;4.20;99.90
7694;DHT22;3889;48.162;11.510;2022-12-07T09:47:41;4.30;99.90
7694;DHT22;3889;48.162;11.510;2022-12-07T09:50:14;4.40;99.90
7694;DHT22;3889;48.162;11.510;2022-12-07T09:52:44;4.40;99.90
7694;DHT22;3889;48.162;11.510;2022-12-07T09:55:16;4.50;99.90
7694;DHT22;3889;48.162;11.510;2022-12-07T09:57:44;4.50;99.90
7694;DHT22;3889;48.162;11.510;2022-12-07T10:00:14;4.50;99.90
7694;DHT22;3889;48.162;11.510;2022-12-07T10:02:46;4.50;99.90
7694;DHT22;3889;48.162;11.510;2022-12-07T10:05:18;4.60;99.90
7694;DHT22;3889;48.162;11.510;2022-12-07T10:07:50;4.70;99.90
7694;DHT22;3889;48.162;11.510;2022-12-07T10:10:23;4.70;99.90
7694;DHT22;3889;48.162;11.510;2022-12-07T10:12:57;4.70;99.90
7694;DHT22;3889;48.162;11.510;2022-12-07T10:15:46;4.60;99.90
7694;DHT22;3889;48.162;11.510;2022-12-07T10:18:21;4.70;99.90
7694;DHT22;3889;48.162;11.510;2022-12-07T10:20:49;4.60;99.90
7694;DHT22;3889;48.162;11.510;2022-12-07T10:23:17;4.60;99.90
7694;DHT22;3889;48.162;11.510;2022-12-07T10:25:45;4.60;99.90
7694;DHT22;3889;48.162;11.510;2022-12-07T10:28:16;4.60;99.90
7694;DHT22;3889;48.162;11.510;2022-12-07T10:30:53;4.80;99.90
7694;DHT22;3889;48.162;11.510;2022-12-07T10:33:33;4.80;99.90
7694;DHT22;3889;48.162;11.510;2022-12-07T10:36:17;4.80;99.90
7694;DHT22;3889;48.162;11.510;2022-12-07T10:38:47;4.90;99.90
7694;DHT22;3889;48.162;11.510;2022-12-07T10:41:15;4.90;99.90
7694;DHT22;3889;48.162;11.510;2022-12-07T10:43:51;5.00;99.90
7694;DHT22;3889;48.162;11.510;2022-12-07T10:52:36;5.20;99.90
7694;DHT22;3889;48.162;11.510;2022-12-07T10:55:15;5.20;99.90
7694;DHT22;3889;48.162;11.510;2022-12-07T10:57:59;5.20;99.90
7694;DHT22;3889;48.162;11.510;2022-12-07T11:00:31;5.30;99.90
7694;DHT22;3889;48.162;11.510;2022-12-07T11:03:21;5.40;99.90
7694;DHT22;3889;48.162;11.510;2022-12-07T11:05:58;5.40;99.90
7694;DHT22;3889;48.162;11.510;2022-12-07T11:08:41;5.50;99.90
7694;DHT22;3889;48.162;11.510;2022-12-07T11:11:16;5.60;99.90
7694;DHT22;3889;48.162;11.510;2022-12-07T11:13:48;5.60;99.90
7694;DHT22;3889;48.162;11.510;2022-12-07T11:16:24;5.50;99.90
7694;DHT22;3889;48.162;11.510;2022-12-07T11:19:17;5.50;99.90
7694;DHT22;3889;48.162;11.510;2022-12-07T11:21:57;5.60;99.90
7694;DHT22;3889;48.162;11.510;2022-12-07T11:24:30;5.80;99.90
7694;DHT22;3889;48.162;11.510;2022-12-07T11:27:17;5.80;99.90
7694;DHT22;3889;48.162;11.510;2022-12-07T11:30:08;5.80;99.90
7694;DHT22;3889;48.162;11.510;2022-12-07T11:32:51;5.70;99.90
7694;DHT22;3889;48.162;11.510;2022-12-07T11:35:29;5.80;99.90
7694;DHT22;3889;48.162;11.510;2022-12-07T11:38:03;5.70;99.90
7694;DHT22;3889;48.162;11.510;2022-12-07T11:40:36;5.60;99.90
7694;DHT22;3889;48.162;11.510;2022-12-07T11:43:13;5.50;99.90
7694;DHT22;3889;48.162;11.510;2022-12-07T11:45:45;5.50;99.90
7694;DHT22;3889;48.162;11.510;2022-12-07T11:48:17;5.60;99.90
7694;DHT22;3889;48.162;11.510;2022-12-07T11:50:51;5.60;99.90
7694;DHT22;3889;48.162;11.510;2022-12-07T11:53:25;5.50;99.90
7694;DHT22;3889;48.162;11.510;2022-12-07T11:55:57;5.50;99.90
7694;DHT22;3889;48.162;11.510;2022-12-07T11:58:44;5.40;99.90
7694;DHT22;3889;48.162;11.510;2022-12-07T12:01:29;5.30;99.90
7694;DHT22;3889;48.162;11.510;2022-12-07T12:04:06;5.30;99.90
7694;DHT22;3889;48.162;11.510;2022-12-07T12:06:41;5.20;99.90
7694;DHT22;3889;48.162;11.510;2022-12-07T12:09:13;5.10;99.90
7694;DHT22;3889;48.162;11.510;2022-12-07T12:12:14;5.10;99.90
7694;DHT22;3889;48.162;11.510;2022-12-07T12:15:15;5.00;99.90
7694;DHT22;3889;48.162;11.510;2022-12-07T12:18:19;4.80;99.90
7694;DHT22;3889;48.162;11.510;2022-12-07T12:20:54;4.90;99.90
7694;DHT22;3889;48.162;11.510;2022-12-07T12:23:35;4.80;99.90
7694;DHT22;3889;48.162;11.510;2022-12-07T12:26:07;4.80;99.90
7694;DHT22;3889;48.162;11.510;2022-12-07T12:28:42;4.80;99.90
7694;DHT22;3889;48.162;11.510;2022-12-07T12:31:31;4.60;99.90
7694;DHT22;3889;48.162;11.510;2022-12-07T12:34:03;4.50;99.90
7694;DHT22;3889;48.162;11.510;2022-12-07T12:36:45;4.30;99.90
7694;DHT22;3889;48.162;11.510;2022-12-07T12:39:14;4.30;99.90
7694;DHT22;3889;48.162;11.510;2022-12-07T12:41:54;4.30;99.90
7694;DHT22;3889;48.162;11.510;2022-12-07T12:47:51;4.50;99.90
7694;DHT22;3889;48.162;11.510;2022-12-07T12:50:22;4.60;99.90
7694;DHT22;3889;48.162;11.510;2022-12-07T12:53:00;4.60;99.90
7694;DHT22;3889;48.162;11.510;2022-12-07T12:58:42;4.70;99.90
7694;DHT22;3889;48.162;11.510;2022-12-07T13:01:46;4.70;99.90
7694;DHT22;3889;48.162;11.510;2022-12-07T13:09:56;4.70;99.90
7694;DHT22;3889;48.162;11.510;2022-12-07T13:12:25;4.70;99.90
7694;DHT22;3889;48.162;11.510;2022-12-07T13:14:57;4.80;99.90
7694;DHT22;3889;48.162;11.510;2022-12-07T13:17:55;4.90;99.90
7694;DHT22;3889;48.162;11.510;2022-12-07T13:23:33;4.90;99.90
7694;DHT22;3889;48.162;11.510;2022-12-07T13:26:24;4.90;99.90
7694;DHT22;3889;48.162;11.510;2022-12-07T13:29:09;5.00;99.90
7694;DHT22;3889;48.162;11.510;2022-12-07T13:31:40;5.00;99.90
7694;DHT22;3889;48.162;11.510;2022-12-07T13:34:30;5.00;99.90
7694;DHT22;3889;48.162;11.510;2022-12-07T13:36:58;5.00;99.90
7694;DHT22;3889;48.162;11.510;2022-12-07T13:39:27;5.00;99.90
7694;DHT22;3889;48.162;11.510;2022-12-07T13:41:57;4.90;99.90
7694;DHT22;3889;48.162;11.510;2022-12-07T13:44:27;4.90;99.90
7694;DHT22;3889;48.162;11.510;2022-12-07T13:47:03;4.80;99.90
7694;DHT22;3889;48.162;11.510;2022-12-07T13:49:37;4.80;99.90
7694;DHT22;3889;48.162;11.510;2022-12-07T13:52:15;4.70;99.90
7694;DHT22;3889;48.162;11.510;2022-12-07T13:54:45;4.60;99.90
7694;DHT22;3889;48.162;11.510;2022-12-07T13:57:13;4.60;99.90
7694;DHT22;3889;48.162;11.510;2022-12-07T13:59:41;4.60;99.90
7694;DHT22;3889;48.162;11.510;2022-12-07T14:02:22;4.60;99.90
7694;DHT22;3889;48.162;11.510;2022-12-07T14:05:08;4.60;99.90
7694;DHT22;3889;48.162;11.510;2022-12-07T14:07:47;4.70;99.90
7694;DHT22;3889;48.162;11.510;2022-12-07T14:10:24;4.70;99.90
7694;DHT22;3889;48.162;11.510;2022-12-07T14:12:52;4.70;99.90
7694;DHT22;3889;48.162;11.510;2022-12-07T14:15:22;4.60;99.90
7694;DHT22;3889;48.162;11.510;2022-12-07T14:17:54;4.70;99.90
7694;DHT22;3889;48.162;11.510;2022-12-07T14:20:29;4.70;99.90
7694;DHT22;3889;48.162;11.510;2022-12-07T14:22:58;4.70;99.90
7694;DHT22;3889;48.162;11.510;2022-12-07T14:25:45;4.70;99.90
7694;DHT22;3889;48.162;11.510;2022-12-07T14:28:26;4.70;99.90
7694;DHT22;3889;48.162;11.510;2022-12-07T14:30:54;4.60;99.90
7694;DHT22;3889;48.162;11.510;2022-12-07T14:33:24;4.50;99.90
7694;DHT22;3889;48.162;11.510;2022-12-07T14:35:52;4.50;99.90
7694;DHT22;3889;48.162;11.510;2022-12-07T14:38:21;4.40;99.90
7694;DHT22;3889;48.162;11.510;2022-12-07T14:40:51;4.30;99.90
7694;DHT22;3889;48.162;11.510;2022-12-07T14:43:20;4.20;99.90
7694;DHT22;3889;48.162;11.510;2022-12-07T14:45:47;4.10;99.90
7694;DHT22;3889;48.162;11.510;2022-12-07T14:48:15;4.10;99.90
7694;DHT22;3889;48.162;11.510;2022-12-07T14:51:05;4.00;99.90
7694;DHT22;3889;48.162;11.510;2022-12-07T14:53:53;4.00;99.90
7694;DHT22;3889;48.162;11.510;2022-12-07T14:56:23;3.90;99.90
7694;DHT22;3889;48.162;11.510;2022-12-07T14:58:51;3.90;99.90
7694;DHT22;3889;48.162;11.510;2022-12-07T15:01:19;3.70;99.90
7694;DHT22;3889;48.162;11.510;2022-12-07T15:03:47;3.70;99.90
7694;DHT22;3889;48.162;11.510;2022-12-07T15:06:18;3.60;99.90
7694;DHT22;3889;48.162;11.510;2022-12-07T15:08:46;3.50;99.90
7694;DHT22;3889;48.162;11.510;2022-12-07T15:11:14;3.50;99.90
7694;DHT22;3889;48.162;11.510;2022-12-07T15:13:42;3.40;99.90
7694;DHT22;3889;48.162;11.510;2022-12-07T15:16:28;3.30;99.90
7694;DHT22;3889;48.162;11.510;2022-12-07T15:19:17;3.30;99.90
7694;DHT22;3889;48.162;11.510;2022-12-07T15:21:56;3.20;99.90
7694;DHT22;3889;48.162;11.510;2022-12-07T15:24:24;3.20;99.90
7694;DHT22;3889;48.162;11.510;2022-12-07T15:26:52;3.30;99.90
7694;DHT22;3889;48.162;11.510;2022-12-07T15:29:20;3.30;99.90
7694;DHT22;3889;48.162;11.510;2022-12-07T15:31:50;3.30;99.90
7694;DHT22;3889;48.162;11.510;2022-12-07T15:34:23;3.40;99.90
7694;DHT22;3889;48.162;11.510;2022-12-07T15:36:51;3.30;99.90
7694;DHT22;3889;48.162;11.510;2022-12-07T15:39:20;3.30;99.90
7694;DHT22;3889;48.162;11.510;2022-12-07T15:41:49;3.30;99.90
7694;DHT22;3889;48.162;11.510;2022-12-07T15:44:17;3.20;99.90
7694;DHT22;3889;48.162;11.510;2022-12-07T15:47:03;3.10;99.90
7694;DHT22;3889;48.162;11.510;2022-12-07T15:49:31;3.10;99.90
7694;DHT22;3889;48.162;11.510;2022-12-07T15:51:59;3.00;99.90
7694;DHT22;3889;48.162;11.510;2022-12-07T15:54:29;3.00;99.90
7694;DHT22;3889;48.162;11.510;2022-12-07T15:56:58;3.00;99.90
7694;DHT22;3889;48.162;11.510;2022-12-07T15:59:27;3.10;99.90
7694;DHT22;3889;48.162;11.510;2022-12-07T16:01:56;3.00;99.90
7694;DHT22;3889;48.162;11.510;2022-12-07T16:04:24;2.80;99.90
7694;DHT22;3889;48.162;11.510;2022-12-07T16:06:52;2.70;99.90
7694;DHT22;3889;48.162;11.510;2022-12-07T16:09:20;2.70;99.90
7694;DHT22;3889;48.162;11.510;2022-12-07T16:11:49;2.80;99.90
7694;DHT22;3889;48.162;11.510;2022-12-07T16:14:18;2.70;99.90
7694;DHT22;3889;48.162;11.510;2022-12-07T16:16:46;2.70;99.90
7694;DHT22;3889;48.162;11.510;2022-12-07T16:19:15;2.70;99.90
7694;DHT22;3889;48.162;11.510;2022-12-07T16:21:42;2.80;99.90
7694;DHT22;3889;48.162;11.510;2022-12-07T16:24:10;2.80;99.90
7694;DHT22;3889;48.162;11.510;2022-12-07T16:26:39;2.60;99.90
7694;DHT22;3889;48.162;11.510;2022-12-07T16:29:17;2.50;99.90
7694;DHT22;3889;48.162;11.510;2022-12-07T16:31:46;2.40;99.90
7694;DHT22;3889;48.162;11.510;2022-12-07T16:34:14;2.40;99.90
7694;DHT22;3889;48.162;11.510;2022-12-07T16:36:42;2.40;99.90
7694;DHT22;3889;48.162;11.510;2022-12-07T16:39:31;2.30;99.90
7694;DHT22;3889;48.162;11.510;2022-12-07T16:41:59;2.30;99.90
7694;DHT22;3889;48.162;11.510;2022-12-07T16:44:28;2.30;99.90
7694;DHT22;3889;48.162;11.510;2022-12-07T16:46:57;2.30;99.90
7694;DHT22;3889;48.162;11.510;2022-12-07T16:49:24;2.40;99.90
7694;DHT22;3889;48.162;11.510;2022-12-07T16:51:52;2.40;99.90
7694;DHT22;3889;48.162;11.510;2022-12-07T16:54:40;2.50;99.90